Flight Track Log - Related Links

Times and Time Zones

All times are in EDT time to prevent confusion due to time zone crossing. See the MTN7303 flight status page for this flight to view local times or setup timezone preferences in your user account.

Time Position Orientation Groundspeed Altitude Reporting Facility
EDT Latitude Longitude Course Direction KTS MPH feet Rate Location/Type
Thu 11:02:47 PM 39.1833 -76.6333 38° Northeast 112 129 1,000  Level Potomac TRACON
Thu 11:03:53 PM 39.2167 -76.6000 38° Northeast 115 132 1,900 905 Climbing Potomac TRACON
Thu 11:04:53 PM 39.2333 -76.5833 38° Northeast 107 123 2,900 850 Climbing Potomac TRACON
Thu 11:05:53 PM 39.2500 -76.5500 57° Northeast 105 121 3,600 800 Climbing Potomac TRACON
Thu 11:06:53 PM 39.2667 -76.5333 38° Northeast 106 122 4,500 700 Climbing Potomac TRACON
Thu 11:07:53 PM 39.3000 -76.5000 38° Northeast 114 131 5,000 250 Climbing Potomac TRACON
Thu 11:08:53 PM 39.3167 -76.4667 57° Northeast 144 166 5,000  Level Potomac TRACON
Thu 11:09:53 PM 39.3500 -76.4333 38° Northeast 144 166 5,000  Level Potomac TRACON
Thu 11:10:53 PM 39.3833 -76.3833 49° Northeast 141 162 5,000  Level Potomac TRACON
Thu 11:11:53 PM 39.4000 -76.3500 57° Northeast 144 166 5,000  Level Potomac TRACON
Thu 11:12:54 PM 39.4333 -76.3167 38° Northeast 144 166 5,000  Level Potomac TRACON
Thu 11:13:54 PM 39.4667 -76.2833 38° Northeast 144 166 5,000  Level Potomac TRACON
Thu 11:14:54 PM 39.4833 -76.2333 67° East 144 166 5,000  Level Potomac TRACON
Thu 11:15:48 PM 39.5167 -76.2000 38° Northeast 146 168 5,000  Level Potomac TRACON
Thu 11:18:10 PM 39.5833 -76.1167 44° Northeast 141 162 5,000  Level Philadelphia TRACON
Thu 11:19:10 PM 39.6167 -76.0833 38° Northeast 141 162 5,000  Level Philadelphia TRACON
Thu 11:20:10 PM 39.6333 -76.0500 57° Northeast 143 165 5,000  Level Philadelphia TRACON
Thu 11:21:10 PM 39.6667 -76.0167 38° Northeast 141 162 5,000  Level Philadelphia TRACON
Thu 11:22:10 PM 39.7000 -75.9667 49° Northeast 142 163 5,000  Level Philadelphia TRACON
Thu 11:23:22 PM 39.7167 -75.9333 57° Northeast 143 165 5,000  Level Philadelphia TRACON
Thu 11:24:22 PM 39.7500 -75.9000 38° Northeast 143 165 5,000  Level Philadelphia TRACON
Thu 11:25:10 PM 39.7833 -75.8667 38° Northeast 143 165 5,000  Level Philadelphia TRACON
Thu 11:26:04 PM 39.8000 -75.8333 57° Northeast 146 168 5,000  Level Philadelphia TRACON
Thu 11:27:16 PM 39.8333 -75.7833 49° Northeast 145 167 5,000  Level Philadelphia TRACON
Thu 11:28:16 PM 39.8667 -75.7500 38° Northeast 145 167 5,000  Level Philadelphia TRACON
Thu 11:29:16 PM 39.8833 -75.7167 57° Northeast 146 168 5,000  Level Philadelphia TRACON
Thu 11:30:16 PM 39.9167 -75.6667 49° Northeast 147 169 5,000  Level Philadelphia TRACON
Thu 11:31:10 PM 39.9333 -75.6333 57° Northeast 146 168 5,000  Level Philadelphia TRACON
Thu 11:32:10 PM 39.9500 -75.5833 66° East 143 165 5,000  Level Philadelphia TRACON
Thu 11:33:04 PM 39.9833 -75.5500 37° Northeast 144 166 5,000  Level Philadelphia TRACON
Thu 11:34:04 PM 40.0000 -75.5000 66° East 148 170 5,000  Level Philadelphia TRACON
Thu 11:35:04 PM 40.0167 -75.4500 66° East 146 168 5,000  Level Philadelphia TRACON
Thu 11:36:04 PM 40.0333 -75.4000 66° East 146 168 5,000  Level Philadelphia TRACON
Thu 11:37:04 PM 40.0500 -75.3667 57° Northeast 145 167 5,000  Level Philadelphia TRACON
Thu 11:37:58 PM 40.0667 -75.3167 66° East 145 167 5,000  Level Philadelphia TRACON
Thu 11:39:04 PM 40.1000 -75.2667 49° Northeast 144 166 5,000  Level Philadelphia TRACON
Thu 11:40:04 PM 40.1167 -75.2167 66° East 145 167 5,000  Level Philadelphia TRACON
Thu 11:41:04 PM 40.1333 -75.1833 57° Northeast 144 166 5,000  Level Philadelphia TRACON
Thu 11:42:04 PM 40.1500 -75.1333 66° East 145 167 5,000  Level Philadelphia TRACON
Thu 11:43:11 PM 40.1833 -75.0833 49° Northeast 146 168 5,000  Level Philadelphia TRACON
Thu 11:43:46 PM 40.1833 -75.0500 90° East 146 168 5,000  Level Philadelphia TRACON
Thu 11:45:00 PM 40.2167 -75.0000 49° Northeast 148 170 5,000  Level New York TRACON
Thu 11:46:00 PM 40.2333 -74.9500 66° East 148 170 5,000  Level New York TRACON
Thu 11:47:00 PM 40.2500 -74.9167 57° Northeast 148 170 5,000  Level New York TRACON
Thu 11:48:00 PM 40.2833 -74.8667 49° Northeast 151 174 5,000  Level New York TRACON
Thu 11:49:00 PM 40.3167 -74.8333 37° Northeast 149 171 5,000  Level New York TRACON
Thu 11:50:00 PM 40.3333 -74.7833 66° East 151 174 5,000  Level New York TRACON
Thu 11:51:00 PM 40.3667 -74.7500 37° Northeast 148 170 5,000  Level New York TRACON
Thu 11:52:00 PM 40.4000 -74.7167 37° Northeast 150 173 5,000 -250 Level New York TRACON
Thu 11:53:00 PM 40.4333 -74.6667 49° Northeast 165 190 4,500 -500 Descending New York TRACON
Thu 11:54:00 PM 40.4667 -74.6500 21° North 173 199 4,000 -250 Descending New York TRACON
Thu 11:55:00 PM 40.5167 -74.6167 27° Northeast 162 186 4,000  Level New York TRACON
Thu 11:56:00 PM 40.5500 -74.6000 21° North 161 185 4,000  Level New York TRACON
Thu 11:57:01 PM 40.5833 -74.5667 37° Northeast 157 181 4,000  Level New York TRACON
Thu 11:58:01 PM 40.6333 -74.5500 14° North 154 177 4,000  Level New York TRACON
Thu 11:59:01 PM 40.6667 -74.5333 21° North 157 181 4,000  Level New York TRACON
Fri 12:00:01 AM 40.7167 -74.5000 27° Northeast 159 183 4,000  Level New York TRACON
Fri 12:01:01 AM 40.7500 -74.4667 37° Northeast 155 178 4,000 -50 Level New York TRACON
Fri 12:02:01 AM 40.7667 -74.4333 57° Northeast 155 178 3,900 -300 Descending New York TRACON
Fri 12:03:01 AM 40.8000 -74.3833 49° Northeast 169 194 3,400 -450 Descending New York TRACON
Fri 12:04:01 AM 40.8500 -74.3500 27° Northeast 170 196 3,000 -200 Descending New York TRACON
Fri 12:05:01 AM 40.8667 -74.3000 66° East 150 173 3,000  Level New York TRACON
Fri 12:06:01 AM 40.8667 -74.2500 90° East 145 167 3,000  Level New York TRACON
Fri 12:07:01 AM 40.8667 -74.2000 90° East 142 163 3,000  Level New York TRACON
Fri 12:08:01 AM 40.8667 -74.1500 90° East 141 162 3,000 -150 Level New York TRACON
Fri 12:09:01 AM 40.8333 -74.1167 143° Southeast 160 184 2,700 -400 Descending New York TRACON
Fri 12:10:01 AM 40.7833 -74.1167 180° South 165 190 2,200 -750 Descending New York TRACON
Fri 12:11:01 AM 40.7333 -74.1500 207° Southwest 175 201 1,200 -1,000 Descending New York TRACON

Login

Don't have an account? Register now (free) for customized features, flight alerts, and more!